Time;durP1;ratioP1;P1;durP2;ratioP2;P2;SDS_P1;SDS_P2;PMS_P1;PMS_P2;Temp;Humidity;BMP_temperature;BMP_pressure;BME280_temperature;BME280_humidity;BME280_pressure;Samples;Min_cycle;Max_cycle;Signal;HPM_P1;HPM_P2
2023/01/03 00:01:10;;;;;;;6.10;1.30;;;9.70;1.00;;;;;;5049786;28;20429;-53
2023/01/03 00:03:36;;;;;;;5.20;1.10;;;9.50;1.00;;;;;;5049298;28;20420;-53
2023/01/03 00:06:01;;;;;;;4.60;1.00;;;9.50;1.00;;;;;;5031078;28;20512;-53
2023/01/03 00:08:28;;;;;;;4.90;1.20;;;9.50;1.00;;;;;;5049628;28;20403;-54
2023/01/03 00:10:53;;;;;;;5.22;1.00;;;9.50;1.00;;;;;;5049249;28;20457;-54
2023/01/03 00:13:19;;;;;;;4.90;1.30;;;9.50;1.00;;;;;;5050065;28;20789;-54
2023/01/03 00:15:44;;;;;;;4.80;1.17;;;9.60;99.90;;;;;;5049522;28;20378;-53
2023/01/03 00:18:10;;;;;;;4.70;1.00;;;9.60;99.90;;;;;;5050135;28;20839;-54
2023/01/03 00:20:35;;;;;;;5.10;1.20;;;9.70;99.90;;;;;;5049373;28;20408;-53
2023/01/03 00:23:01;;;;;;;5.17;1.20;;;9.70;99.90;;;;;;5048855;28;20443;-54
2023/01/03 00:25:27;;;;;;;5.40;1.20;;;9.80;99.90;;;;;;5050004;28;20727;-54
2023/01/03 00:27:53;;;;;;;5.30;1.20;;;9.70;71.00;;;;;;5049337;28;20377;-53
2023/01/03 00:30:20;;;;;;;5.30;1.40;;;9.80;7.20;;;;;;5049461;28;20378;-54
2023/01/03 00:32:45;;;;;;;6.38;1.17;;;9.90;1.00;;;;;;5048889;28;20382;-54
2023/01/03 00:35:11;;;;;;;5.43;1.30;;;9.90;99.90;;;;;;5049438;28;20492;-54
2023/01/03 00:37:36;;;;;;;4.93;1.10;;;9.90;1.00;;;;;;5050086;28;20412;-54
2023/01/03 00:40:03;;;;;;;5.50;1.30;;;9.90;1.00;;;;;;5031134;28;21022;-53
2023/01/03 00:42:29;;;;;;;5.60;1.30;;;9.80;1.00;;;;;;5049733;28;20409;-53
2023/01/03 00:44:54;;;;;;;4.68;1.10;;;10.60;99.90;;;;;;5048668;28;20428;-53
2023/01/03 00:47:20;;;;;;;4.87;1.30;;;9.60;99.90;;;;;;5049596;28;20392;-53
2023/01/03 00:49:46;;;;;;;4.95;1.20;;;9.60;1.00;;;;;;5049148;28;20377;-53
2023/01/03 00:52:11;;;;;;;4.70;0.70;;;9.40;99.90;;;;;;5049445;28;20374;-53
2023/01/03 00:54:37;;;;;;;4.80;0.98;;;9.40;64.50;;;;;;5051514;28;20488;-53
2023/01/03 00:57:02;;;;;;;5.47;1.10;;;9.40;99.90;;;;;;5052929;28;20411;-53
2023/01/03 00:59:28;;;;;;;6.28;1.10;;;9.40;1.00;;;;;;5053669;28;20385;-54
2023/01/03 01:01:56;;;;;;;4.50;0.70;;;9.40;1.00;;;;;;5052412;28;20381;-53
2023/01/03 01:04:23;;;;;;;6.22;1.17;;;10.50;1.00;;;;;;5052763;28;20766;-53
2023/01/03 01:06:51;;;;;;;4.60;0.80;;;9.50;99.90;;;;;;5052237;28;20927;-53
2023/01/03 01:09:23;;;;;;;4.60;1.08;;;9.50;1.00;;;;;;5052503;28;20397;-53
2023/01/03 01:11:49;;;;;;;4.70;0.80;;;11.20;1.00;;;;;;5051979;28;20897;-53
2023/01/03 01:14:19;;;;;;;4.95;1.10;;;9.40;99.90;;;;;;5052828;28;20397;-53
2023/01/03 01:16:57;;;;;;;5.20;1.30;;;9.40;99.90;;;;;;5052318;28;20369;-58
2023/01/03 01:19:26;;;;;;;5.00;1.00;;;9.40;99.90;;;;;;5052976;28;20851;-53
2023/01/03 01:21:51;;;;;;;6.00;1.10;;;9.40;1.00;;;;;;5052240;28;20439;-53
2023/01/03 01:24:17;;;;;;;6.10;1.20;;;9.30;50.60;;;;;;5052500;28;20413;-54
2023/01/03 01:26:43;;;;;;;5.80;1.00;;;9.30;99.90;;;;;;5052560;28;20401;-55
2023/01/03 01:29:11;;;;;;;5.90;1.20;;;9.10;1.00;;;;;;5052211;28;20393;-53
2023/01/03 01:31:37;;;;;;;5.70;1.50;;;9.10;1.00;;;;;;5052389;28;20392;-53
2023/01/03 01:34:03;;;;;;;4.40;1.10;;;9.10;1.00;;;;;;5051409;28;20393;-53
2023/01/03 01:36:32;;;;;;;5.82;1.08;;;9.10;1.00;;;;;;5052517;28;20409;-53
2023/01/03 01:39:03;;;;;;;4.82;1.20;;;9.10;99.90;;;;;;5033581;28;20781;-53
2023/01/03 01:44:46;;;;;;;4.88;0.82;;;9.10;99.90;;;;;;5052078;28;20490;-53
2023/01/03 01:47:32;;;;;;;5.20;1.30;;;9.20;99.90;;;;;;5051736;28;20400;-53
2023/01/03 01:50:06;;;;;;;4.60;1.10;;;9.10;99.90;;;;;;5049453;28;20485;-53
2023/01/03 01:52:34;;;;;;;5.30;0.90;;;9.20;99.90;;;;;;5052121;28;20447;-53
2023/01/03 01:55:03;;;;;;;5.50;1.30;;;9.20;1.00;;;;;;5051471;28;20381;-53
2023/01/03 01:57:30;;;;;;;5.00;1.00;;;9.20;53.50;;;;;;5052023;28;20388;-53
2023/01/03 01:59:56;;;;;;;5.80;1.00;;;9.20;99.90;;;;;;5050990;28;20373;-53
2023/01/03 02:02:22;;;;;;;7.38;1.30;;;9.20;2.00;;;;;;5051763;28;20392;-55
2023/01/03 02:04:52;;;;;;;6.45;1.30;;;9.10;99.90;;;;;;5051402;28;20421;-57
2023/01/03 02:07:20;;;;;;;4.95;1.10;;;9.10;99.90;;;;;;5050710;28;20386;-53
2023/01/03 02:09:47;;;;;;;5.47;1.40;;;9.10;34.80;;;;;;5051298;28;20857;-58
2023/01/03 02:15:18;;;;;;;4.70;1.00;;;9.00;99.90;;;;;;5050541;28;20392;-53
2023/01/03 02:18:03;;;;;;;6.32;1.20;;;9.00;99.90;;;;;;5051422;28;20451;-58
2023/01/03 02:21:17;;;;;;;5.20;1.10;;;9.00;99.90;;;;;;5051522;28;20392;-54
2023/01/03 02:23:51;;;;;;;5.10;1.10;;;9.00;99.90;;;;;;5051406;28;20407;-53
2023/01/03 02:26:23;;;;;;;5.40;1.40;;;8.90;99.90;;;;;;5051175;28;20812;-53
2023/01/03 02:28:51;;;;;;;7.30;2.00;;;9.50;99.90;;;;;;5050208;28;20388;-57
2023/01/03 02:31:54;;;;;;;4.60;1.10;;;8.80;1.00;;;;;;5051065;28;20446;-53
2023/01/03 02:34:44;;;;;;;5.40;1.38;;;8.80;99.90;;;;;;5050948;28;20394;-53
2023/01/03 02:37:24;;;;;;;5.63;1.52;;;8.70;99.90;;;;;;5050658;28;20455;-52
2023/01/03 02:40:14;;;;;;;4.80;1.30;;;8.60;99.90;;;;;;5050427;28;20377;-52
2023/01/03 02:42:57;;;;;;;5.43;1.10;;;8.40;99.90;;;;;;5050481;28;20893;-53
2023/01/03 02:45:22;;;;;;;5.47;1.33;;;8.20;99.90;;;;;;5051223;28;20386;-53
2023/01/03 02:47:54;;;;;;;8.40;1.30;;;8.10;99.90;;;;;;5050955;28;20476;-58
2023/01/03 02:50:25;;;;;;;4.93;1.30;;;8.00;99.90;;;;;;5051733;28;20381;-53
2023/01/03 02:52:55;;;;;;;7.20;1.30;;;8.00;99.90;;;;;;5050490;28;20461;-53
2023/01/03 02:55:25;;;;;;;6.20;1.48;;;8.00;99.90;;;;;;5051107;28;20390;-53
2023/01/03 02:58:15;;;;;;;5.35;1.40;;;8.00;99.90;;;;;;5050199;28;20377;-52
2023/01/03 03:00:47;;;;;;;4.60;1.10;;;8.60;99.90;;;;;;5051386;28;20858;-53
2023/01/03 03:03:17;;;;;;;5.00;1.20;;;8.10;99.90;;;;;;5050568;28;20883;-51
2023/01/03 03:05:53;;;;;;;5.28;1.27;;;8.90;99.90;;;;;;5050437;28;20397;-51
2023/01/03 03:08:19;;;;;;;6.07;1.30;;;8.10;99.90;;;;;;5050893;28;20468;-51
2023/01/03 03:13:35;;;;;;;5.80;1.40;;;8.10;99.90;;;;;;5050465;28;20384;-53
2023/01/03 03:16:06;;;;;;;4.60;1.20;;;8.10;32.90;;;;;;5049945;28;20378;-51
2023/01/03 03:18:55;;;;;;;7.65;1.67;;;8.10;25.30;;;;;;5050569;28;20861;-53
2023/01/03 03:30:00;;;;;;;4.47;1.10;;;8.10;22.20;;;;;;5069091;28;20379;-54
2023/01/03 03:32:28;;;;;;;5.60;1.60;;;8.00;99.90;;;;;;5069257;28;20431;-52
2023/01/03 03:34:56;;;;;;;5.50;1.63;;;7.90;99.90;;;;;;5068671;28;20414;-51
2023/01/03 03:37:26;;;;;;;6.10;1.50;;;7.90;1.00;;;;;;5069877;28;20387;-51
2023/01/03 03:46:04;;;;;;;5.18;1.35;;;7.70;99.90;;;;;;5069440;28;20852;-55
2023/01/03 03:51:38;;;;;;;7.22;1.48;;;7.80;84.00;;;;;;5069613;28;20387;-51
2023/01/03 03:54:08;;;;;;;6.40;1.40;;;7.80;1.00;;;;;;5068670;28;20749;-51
2023/01/03 03:56:37;;;;;;;5.57;1.60;;;8.30;1.00;;;;;;5070163;28;20911;-51
2023/01/03 03:59:08;;;;;;;5.40;1.53;;;7.70;1.00;;;;;;5069193;28;20465;-51
2023/01/03 04:01:37;;;;;;;6.13;1.40;;;7.70;99.90;;;;;;5069782;28;20708;-51
2023/01/03 04:04:10;;;;;;;7.60;1.60;;;7.60;1.00;;;;;;5065028;28;20435;-51
2023/01/03 04:06:46;;;;;;;5.32;1.63;;;7.60;1.00;;;;;;5051042;28;20850;-51
2023/01/03 04:09:12;;;;;;;5.05;1.38;;;7.50;1.00;;;;;;5057129;28;20388;-50
2023/01/03 04:11:38;;;;;;;5.15;1.67;;;7.40;1.00;;;;;;5069365;28;20372;-50
2023/01/03 04:14:04;;;;;;;5.80;1.67;;;7.40;99.90;;;;;;5057473;28;20393;-51
2023/01/03 04:16:29;;;;;;;7.20;1.80;;;7.40;99.90;;;;;;5049426;28;20389;-51
2023/01/03 04:18:55;;;;;;;6.73;1.80;;;7.30;99.90;;;;;;5059807;28;20372;-51
2023/01/03 04:21:20;;;;;;;5.55;1.60;;;8.10;99.90;;;;;;5069385;28;20388;-51
2023/01/03 04:23:46;;;;;;;5.27;1.60;;;7.20;99.90;;;;;;5069141;28;20876;-51
2023/01/03 04:26:11;;;;;;;5.97;1.80;;;7.10;1.00;;;;;;5068445;28;20392;-51
2023/01/03 04:28:37;;;;;;;6.80;1.60;;;7.10;1.00;;;;;;5069355;28;20888;-51
2023/01/03 04:31:03;;;;;;;5.55;1.48;;;7.10;1.00;;;;;;5069736;28;20400;-51
2023/01/03 04:33:28;;;;;;;5.67;1.70;;;7.10;1.00;;;;;;5073601;28;20850;-50
2023/01/03 04:35:54;;;;;;;6.90;1.67;;;7.40;1.00;;;;;;5072524;28;20406;-51
2023/01/03 04:38:19;;;;;;;6.40;1.80;;;8.10;1.00;;;;;;5073448;28;20433;-51
2023/01/03 04:40:45;;;;;;;6.65;1.80;;;7.00;1.00;;;;;;5073242;28;20379;-51
2023/01/03 04:45:56;;;;;;;8.85;2.20;;;8.00;1.00;;;;;;5070575;28;21191;-51
2023/01/03 04:48:22;;;;;;;5.50;1.70;;;7.00;99.90;;;;;;5044666;28;20385;-52
2023/01/03 04:50:55;;;;;;;7.00;1.77;;;8.40;99.90;;;;;;5057630;28;20463;-54
2023/01/03 04:53:22;;;;;;;5.90;1.80;;;6.80;99.90;;;;;;5073345;28;20388;-51
2023/01/03 04:55:50;;;;;;;6.25;1.80;;;7.50;1.00;;;;;;5071878;28;20562;-56
2023/01/03 04:58:16;;;;;;;6.88;2.05;;;8.30;1.00;;;;;;5052378;28;20374;-52
2023/01/03 05:00:42;;;;;;;9.75;2.17;;;6.60;1.00;;;;;;5052746;28;20731;-51
2023/01/03 05:03:07;;;;;;;5.68;1.80;;;6.80;99.90;;;;;;5052107;28;21197;-50
2023/01/03 05:05:35;;;;;;;5.03;1.60;;;7.00;99.90;;;;;;5064443;28;20438;-50
2023/01/03 05:08:09;;;;;;;7.70;2.22;;;6.50;99.90;;;;;;5071998;28;20859;-52
2023/01/03 05:10:37;;;;;;;6.53;2.15;;;6.50;1.00;;;;;;5072731;28;20379;-51
2023/01/03 05:13:03;;;;;;;6.20;2.10;;;6.60;99.90;;;;;;5071976;28;20476;-50
2023/01/03 05:15:33;;;;;;;6.80;2.20;;;6.50;1.00;;;;;;5070546;28;20395;-50
2023/01/03 05:17:58;;;;;;;6.70;2.20;;;6.80;99.90;;;;;;5071710;28;20864;-51
2023/01/03 05:25:59;;;;;;;6.97;2.40;;;6.40;99.90;;;;;;5071836;28;20742;-51
2023/01/03 05:28:25;;;;;;;7.40;2.15;;;6.40;1.00;;;;;;5072103;28;20383;-51
2023/01/03 05:30:50;;;;;;;7.97;2.50;;;6.40;1.00;;;;;;5070998;28;20379;-54
2023/01/03 05:33:16;;;;;;;7.73;2.70;;;6.40;1.00;;;;;;5066842;28;20387;-50
2023/01/03 05:35:46;;;;;;;6.95;2.30;;;6.50;1.00;;;;;;5071037;28;20411;-53
2023/01/03 05:38:12;;;;;;;8.13;2.55;;;6.40;1.00;;;;;;5054441;28;20950;-51
2023/01/03 05:40:37;;;;;;;7.10;2.50;;;6.30;1.00;;;;;;5070830;28;20398;-50
2023/01/03 05:43:03;;;;;;;6.00;2.40;;;7.00;1.00;;;;;;5071287;28;20411;-50
2023/01/03 05:45:29;;;;;;;5.90;2.10;;;6.40;57.10;;;;;;5071512;28;20864;-51
2023/01/03 05:47:57;;;;;;;6.73;2.50;;;6.50;41.80;;;;;;5071020;28;20375;-51
2023/01/03 05:50:23;;;;;;;6.25;2.30;;;6.50;71.70;;;;;;5072105;28;20382;-50
2023/01/03 05:52:49;;;;;;;6.55;2.38;;;7.00;47.70;;;;;;5071313;28;20482;-55
2023/01/03 05:55:15;;;;;;;6.97;2.40;;;6.60;41.00;;;;;;5071689;28;20470;-50
2023/01/03 05:57:41;;;;;;;8.65;2.28;;;6.60;1.00;;;;;;5071485;28;20379;-50
2023/01/03 06:00:07;;;;;;;8.47;2.40;;;6.60;1.00;;;;;;5070729;28;20387;-51
2023/01/03 06:02:33;;;;;;;6.22;2.10;;;6.50;11.70;;;;;;5071806;28;20384;-50
2023/01/03 06:04:59;;;;;;;8.10;2.23;;;7.90;7.60;;;;;;5070860;28;20424;-51
2023/01/03 06:07:24;;;;;;;8.90;2.47;;;6.70;30.30;;;;;;5071709;28;20773;-50
2023/01/03 06:09:50;;;;;;;7.80;2.30;;;7.20;37.00;;;;;;5071021;28;20437;-55
2023/01/03 06:12:15;;;;;;;7.90;2.50;;;6.80;8.90;;;;;;5071445;28;20872;-50
2023/01/03 06:14:41;;;;;;;6.87;2.10;;;6.80;1.00;;;;;;5071092;28;20392;-50
2023/01/03 06:19:51;;;;;;;6.15;1.90;;;6.70;1.00;;;;;;5061747;28;20461;-55
2023/01/03 06:22:16;;;;;;;6.40;1.90;;;6.80;1.00;;;;;;5065299;28;20391;-51
2023/01/03 06:24:42;;;;;;;6.10;2.20;;;6.70;1.00;;;;;;5072920;28;20410;-51
2023/01/03 06:27:08;;;;;;;6.05;1.70;;;6.70;1.00;;;;;;5074677;28;21189;-51
2023/01/03 06:29:34;;;;;;;5.33;1.57;;;7.30;1.00;;;;;;5062927;28;20395;-51
2023/01/03 06:31:59;;;;;;;9.00;2.20;;;6.60;1.00;;;;;;5071840;28;20379;-51
2023/01/03 06:34:25;;;;;;;5.57;1.88;;;6.70;1.00;;;;;;5072476;28;20388;-51
2023/01/03 06:36:50;;;;;;;5.97;1.80;;;7.50;1.00;;;;;;5072967;28;20388;-55
2023/01/03 06:39:16;;;;;;;6.53;2.27;;;6.60;1.00;;;;;;5073814;28;20863;-51
2023/01/03 06:41:41;;;;;;;7.40;2.67;;;6.60;1.00;;;;;;5072523;28;20380;-51
2023/01/03 06:44:09;;;;;;;6.53;2.13;;;6.60;1.00;;;;;;5068837;28;20414;-51
2023/01/03 06:54:48;;;;;;;5.65;2.13;;;6.50;1.00;;;;;;5069022;28;20447;-54
2023/01/03 06:57:14;;;;;;;7.05;2.30;;;6.80;1.00;;;;;;5063412;28;20807;-50
2023/01/03 06:59:39;;;;;;;6.10;1.90;;;6.60;1.00;;;;;;5070247;28;20382;-50
2023/01/03 07:02:05;;;;;;;6.28;2.30;;;6.60;1.00;;;;;;5069424;28;20862;-51
2023/01/03 07:04:31;;;;;;;6.28;2.17;;;6.90;1.00;;;;;;5063743;28;20428;-53
2023/01/03 07:06:57;;;;;;;7.70;2.40;;;6.40;1.00;;;;;;5063856;28;20401;-50
2023/01/03 07:09:23;;;;;;;6.43;2.40;;;6.60;1.00;;;;;;5062501;28;20453;-51
2023/01/03 07:11:49;;;;;;;6.40;2.65;;;6.20;1.00;;;;;;5055029;28;20516;-50
2023/01/03 07:14:16;;;;;;;9.32;2.63;;;6.10;1.00;;;;;;5064425;28;20415;-52
2023/01/03 07:16:45;;;;;;;7.70;2.58;;;6.10;41.20;;;;;;5069996;28;20479;-53
2023/01/03 07:19:17;;;;;;;6.03;2.20;;;6.00;93.50;;;;;;5069588;28;20383;-52
2023/01/03 07:21:43;;;;;;;8.52;2.90;;;5.90;99.90;;;;;;5069868;28;20371;-53
2023/01/03 07:24:17;;;;;;;8.68;2.80;;;7.40;99.90;;;;;;5069176;28;20423;-52
2023/01/03 07:26:43;;;;;;;6.70;2.70;;;5.90;99.90;;;;;;5069997;28;20428;-52
2023/01/03 07:29:09;;;;;;;10.48;2.60;;;6.00;99.90;;;;;;5048475;28;20419;-51
2023/01/03 07:31:38;;;;;;;7.55;2.33;;;7.00;99.90;;;;;;5068260;28;20380;-51
2023/01/03 07:34:04;;;;;;;9.05;3.30;;;6.20;99.90;;;;;;5053317;28;20484;-51
2023/01/03 07:36:29;;;;;;;8.43;2.60;;;6.20;99.90;;;;;;5048415;28;20580;-50
2023/01/03 07:38:55;;;;;;;7.50;2.50;;;6.80;99.90;;;;;;5049914;28;20378;-51
2023/01/03 07:41:21;;;;;;;7.20;2.57;;;6.30;99.90;;;;;;5069786;28;20881;-51
2023/01/03 07:43:48;;;;;;;10.60;3.20;;;6.40;99.90;;;;;;5069559;28;20408;-51
2023/01/03 07:46:17;;;;;;;8.30;2.47;;;6.50;99.90;;;;;;5068627;28;20387;-52
2023/01/03 07:48:46;;;;;;;7.50;2.50;;;6.50;99.90;;;;;;5069619;28;20475;-53
2023/01/03 07:51:13;;;;;;;6.38;1.88;;;6.60;99.90;;;;;;5068913;28;20774;-50
2023/01/03 07:53:39;;;;;;;6.10;2.43;;;6.80;99.90;;;;;;5070167;28;20392;-51
2023/01/03 07:56:10;;;;;;;7.80;2.37;;;6.90;1.00;;;;;;5068990;28;20387;-51
2023/01/03 07:58:37;;;;;;;5.78;1.90;;;7.10;1.00;;;;;;5070093;28;20363;-51
2023/01/03 08:01:08;;;;;;;8.30;2.17;;;8.00;1.00;;;;;;5068584;28;20415;-51
2023/01/03 08:03:35;;;;;;;6.45;2.50;;;7.40;1.00;;;;;;5068739;28;20872;-53
2023/01/03 08:06:06;;;;;;;7.30;2.20;;;7.60;99.90;;;;;;5068547;28;20777;-51
2023/01/03 08:08:32;;;;;;;6.10;1.90;;;8.40;1.00;;;;;;5069759;28;20380;-51
2023/01/03 08:13:43;;;;;;;6.30;2.10;;;8.50;1.00;;;;;;5069242;28;20934;-51
2023/01/03 08:16:11;;;;;;;6.30;2.30;;;7.80;99.90;;;;;;5068677;28;20380;-51
2023/01/03 08:18:38;;;;;;;6.60;2.20;;;8.40;1.00;;;;;;5069583;28;20375;-51
2023/01/03 08:21:05;;;;;;;6.35;2.10;;;9.00;1.00;;;;;;5068379;28;20384;-53
2023/01/03 08:23:30;;;;;;;6.10;2.20;;;8.10;1.00;;;;;;5069258;28;20434;-53
2023/01/03 08:26:05;;;;;;;5.30;1.67;;;8.10;99.90;;;;;;5068668;28;20760;-52
2023/01/03 08:28:31;;;;;;;6.30;1.80;;;8.10;1.00;;;;;;5069382;28;20408;-52
2023/01/03 08:30:59;;;;;;;7.80;2.00;;;8.10;1.00;;;;;;5068363;28;20457;-52
2023/01/03 08:33:26;;;;;;;7.10;2.05;;;9.60;86.70;;;;;;5069326;28;20729;-51
2023/01/03 08:35:59;;;;;;;6.45;2.13;;;9.30;99.90;;;;;;5068321;28;21224;-56
2023/01/03 08:38:29;;;;;;;8.40;1.90;;;8.40;99.90;;;;;;5068847;28;20785;-51
2023/01/03 08:40:56;;;;;;;5.85;2.13;;;8.50;1.00;;;;;;5068376;28;20429;-53
2023/01/03 08:43:23;;;;;;;5.97;2.10;;;8.60;1.00;;;;;;5069367;28;20404;-52
2023/01/03 08:45:48;;;;;;;6.15;2.08;;;8.80;1.00;;;;;;5068783;28;20376;-54
2023/01/03 08:48:17;;;;;;;6.93;2.00;;;8.60;99.90;;;;;;5068108;28;20398;-52
2023/01/03 08:50:43;;;;;;;7.50;2.30;;;8.60;1.00;;;;;;5068722;28;20745;-52
2023/01/03 08:53:08;;;;;;;5.67;2.20;;;8.70;44.50;;;;;;5067933;28;20395;-52
2023/01/03 08:55:34;;;;;;;6.70;2.50;;;8.80;99.90;;;;;;5069055;28;20376;-52
2023/01/03 08:58:00;;;;;;;6.53;2.30;;;8.80;99.90;;;;;;5068174;28;20710;-52
2023/01/03 09:00:27;;;;;;;7.05;2.20;;;8.80;99.90;;;;;;5068990;28;20388;-52
2023/01/03 09:02:53;;;;;;;6.50;2.10;;;8.90;99.90;;;;;;5068316;28;20395;-56
2023/01/03 09:05:18;;;;;;;5.80;2.30;;;9.30;99.90;;;;;;5068857;28;20396;-52
2023/01/03 09:07:44;;;;;;;5.65;2.20;;;9.20;99.90;;;;;;5051004;28;20496;-52
2023/01/03 09:10:10;;;;;;;6.17;2.03;;;9.30;99.90;;;;;;5068227;28;20494;-53
2023/01/03 09:12:36;;;;;;;6.17;2.07;;;9.40;1.00;;;;;;5068816;28;20395;-52
2023/01/03 09:15:01;;;;;;;5.80;2.05;;;9.50;1.00;;;;;;5068857;28;20384;-52
2023/01/03 09:17:28;;;;;;;8.77;2.40;;;9.60;1.00;;;;;;5072562;28;20458;-52
2023/01/03 09:19:54;;;;;;;6.82;2.63;;;9.60;1.00;;;;;;5072097;28;20386;-56
2023/01/03 09:22:19;;;;;;;6.93;2.50;;;9.90;1.00;;;;;;5071891;28;20458;-52
2023/01/03 09:24:45;;;;;;;7.20;2.40;;;10.00;1.00;;;;;;5072402;28;20779;-52
2023/01/03 09:27:10;;;;;;;7.33;2.60;;;11.30;99.90;;;;;;5071561;28;20379;-52
2023/01/03 09:29:36;;;;;;;6.20;2.30;;;9.90;99.90;;;;;;5072452;28;20371;-52
2023/01/03 09:32:02;;;;;;;6.23;2.40;;;9.90;99.90;;;;;;5071673;28;20380;-53
2023/01/03 09:34:28;;;;;;;5.70;1.92;;;9.80;99.90;;;;;;5054000;28;20407;-53
2023/01/03 09:36:53;;;;;;;6.22;1.98;;;9.80;99.90;;;;;;5071551;28;20383;-56
2023/01/03 09:39:19;;;;;;;7.30;2.40;;;9.90;99.90;;;;;;5072004;28;20398;-52
2023/01/03 09:43:11;;;;;;;7.95;2.13;;;10.20;99.90;;;;;;5072085;28;20376;-53
2023/01/03 09:44:31;;;;;;;9.60;3.67;;;10.50;99.90;;;;;;5071527;28;20428;-53
2023/01/03 09:46:57;;;;;;;9.10;3.15;;;10.50;99.90;;;;;;5071338;28;20387;-53
2023/01/03 09:49:22;;;;;;;9.05;3.40;;;10.50;99.90;;;;;;5071918;28;20835;-55
2023/01/03 10:03:43;;;;;;;6.78;2.20;;;11.20;39.40;;;;;;5070864;28;20383;-53
2023/01/03 10:06:36;;;;;;;6.50;2.20;;;11.00;11.00;;;;;;5071043;28;20396;-53
2023/01/03 10:09:31;;;;;;;7.82;2.20;;;11.00;21.50;;;;;;5070623;28;20380;-53
2023/01/03 10:12:05;;;;;;;8.20;2.65;;;11.10;29.90;;;;;;5070840;28;20387;-53
2023/01/03 10:14:44;;;;;;;8.20;2.80;;;11.30;6.90;;;;;;5071660;28;20489;-53
2023/01/03 10:17:25;;;;;;;8.77;3.00;;;11.40;1.00;;;;;;5050499;28;20381;-51
2023/01/03 10:20:07;;;;;;;7.40;2.67;;;11.40;1.00;;;;;;5051509;28;20380;-52
2023/01/03 10:22:33;;;;;;;6.50;2.60;;;11.40;1.00;;;;;;5051330;28;20378;-51
2023/01/03 10:25:09;;;;;;;7.38;2.40;;;11.50;1.00;;;;;;5069312;28;20448;-52
2023/01/03 10:27:43;;;;;;;8.95;2.42;;;11.60;1.00;;;;;;5070575;28;20448;-52
2023/01/03 10:30:14;;;;;;;9.50;3.00;;;11.80;1.00;;;;;;5070379;28;20398;-53
2023/01/03 10:32:57;;;;;;;8.40;2.30;;;11.90;1.00;;;;;;5071361;28;20387;-52
2023/01/03 10:35:34;;;;;;;6.30;2.30;;;12.20;1.00;;;;;;5070954;28;20415;-52
2023/01/03 10:38:00;;;;;;;8.07;2.70;;;13.00;1.00;;;;;;5070253;28;20790;-55
2023/01/03 10:40:45;;;;;;;6.97;2.70;;;15.00;1.00;;;;;;5071099;28;20376;-54
2023/01/03 10:43:16;;;;;;;6.75;2.60;;;15.50;1.00;;;;;;5068987;28;20400;-55
2023/01/03 10:46:04;;;;;;;8.57;2.70;;;16.10;1.00;;;;;;5050760;28;20784;-54
2023/01/03 10:48:38;;;;;;;7.03;2.70;;;16.50;1.00;;;;;;5070724;28;20418;-52
2023/01/03 10:51:19;;;;;;;8.73;2.95;;;17.60;1.00;;;;;;5069389;28;20394;-56
2023/01/03 10:53:45;;;;;;;9.13;2.50;;;18.20;1.00;;;;;;5070899;28;20445;-52
2023/01/03 10:56:14;;;;;;;8.05;2.35;;;18.30;1.00;;;;;;5070659;28;20371;-55
2023/01/03 10:58:40;;;;;;;8.03;2.90;;;18.40;1.00;;;;;;5071154;28;20883;-52
2023/01/03 11:01:24;;;;;;;7.53;2.85;;;18.80;1.00;;;;;;5070100;28;20407;-52
2023/01/03 11:04:13;;;;;;;7.50;3.20;;;18.60;1.00;;;;;;5070264;28;20419;-52
2023/01/03 11:06:58;;;;;;;9.60;3.07;;;18.40;1.00;;;;;;5069298;28;20461;-52
2023/01/03 11:09:30;;;;;;;7.82;2.95;;;17.90;1.00;;;;;;5070083;28;20383;-52
2023/01/03 11:12:23;;;;;;;6.80;2.37;;;17.50;1.00;;;;;;5070037;28;20388;-56
2023/01/03 11:14:56;;;;;;;9.48;2.78;;;16.80;99.90;;;;;;5058864;28;20391;-55
2023/01/03 11:17:23;;;;;;;6.82;2.60;;;16.40;99.90;;;;;;5070439;28;20380;-55
2023/01/03 11:19:51;;;;;;;7.60;2.50;;;16.10;99.90;;;;;;5052388;28;20403;-54
2023/01/03 11:22:47;;;;;;;7.88;2.90;;;16.20;99.90;;;;;;5069444;28;20372;-55
2023/01/03 11:25:54;;;;;;;8.65;3.17;;;16.40;99.90;;;;;;5069546;28;20407;-54
2023/01/03 11:28:48;;;;;;;7.10;2.83;;;16.10;99.90;;;;;;4987463;28;20418;-54
2023/01/03 11:31:40;;;;;;;8.27;2.80;;;16.20;1.00;;;;;;5044106;28;20460;-55
2023/01/03 11:34:12;;;;;;;8.70;3.20;;;15.90;99.90;;;;;;5069428;28;20395;-56
2023/01/03 11:37:04;;;;;;;8.00;3.10;;;15.20;99.90;;;;;;5070409;28;20408;-54
2023/01/03 11:39:48;;;;;;;7.68;2.88;;;14.80;99.90;;;;;;5038518;28;20457;-53
2023/01/03 11:42:52;;;;;;;7.30;2.60;;;14.30;99.90;;;;;;5068627;28;20414;-53
2023/01/03 11:45:35;;;;;;;8.03;2.90;;;13.90;99.90;;;;;;5058085;28;21010;-55
2023/01/03 11:48:36;;;;;;;6.90;2.50;;;13.80;99.90;;;;;;5064841;28;20777;-52
2023/01/03 11:51:10;;;;;;;7.10;2.60;;;13.50;99.90;;;;;;4994455;28;20488;-53
2023/01/03 11:53:42;;;;;;;6.82;2.45;;;13.50;1.00;;;;;;5057307;28;20494;-53
2023/01/03 11:56:24;;;;;;;6.07;1.70;;;13.70;1.00;;;;;;5050590;28;20390;-52
2023/01/03 11:59:10;;;;;;;7.00;1.70;;;13.70;99.90;;;;;;5055220;28;20392;-52
2023/01/03 12:02:12;;;;;;;8.30;1.92;;;13.80;99.90;;;;;;5068212;28;20394;-52
2023/01/03 12:04:54;;;;;;;5.50;1.70;;;13.80;99.90;;;;;;5069394;28;20427;-52
2023/01/03 12:07:31;;;;;;;7.00;1.95;;;13.70;99.90;;;;;;5069482;28;20391;-52
2023/01/03 12:10:22;;;;;;;6.60;1.98;;;13.70;99.90;;;;;;5069173;28;20464;-56
2023/01/03 12:13:32;;;;;;;7.75;2.20;;;13.70;1.00;;;;;;5069208;28;20801;-52
2023/01/03 12:16:04;;;;;;;7.03;2.20;;;14.00;1.00;;;;;;5048824;28;20534;-56
2023/01/03 12:18:33;;;;;;;5.78;1.63;;;14.00;99.90;;;;;;5049193;28;20389;-52
2023/01/03 12:21:06;;;;;;;6.90;1.88;;;13.90;99.90;;;;;;5048548;28;20385;-55
2023/01/03 12:23:55;;;;;;;5.20;1.10;;;13.90;99.90;;;;;;5049232;28;20470;-52
2023/01/03 12:26:24;;;;;;;5.60;1.15;;;14.00;99.90;;;;;;5049039;28;20390;-52
2023/01/03 12:29:16;;;;;;;5.13;1.30;;;14.10;99.90;;;;;;5055291;28;20392;-52
2023/01/03 12:31:48;;;;;;;5.97;1.10;;;14.00;99.90;;;;;;5063395;28;20507;-52
2023/01/03 12:34:20;;;;;;;6.20;1.30;;;13.80;99.90;;;;;;5048446;28;20406;-52
2023/01/03 12:37:05;;;;;;;5.55;1.05;;;13.80;99.90;;;;;;5057001;28;20534;-52
2023/01/03 12:39:37;;;;;;;5.22;1.10;;;13.80;99.90;;;;;;5056543;28;20372;-55
2023/01/03 12:42:13;;;;;;;5.40;0.90;;;13.90;99.90;;;;;;5068408;28;20404;-52
2023/01/03 12:44:45;;;;;;;6.82;1.45;;;14.10;99.90;;;;;;5067655;28;20408;-53
2023/01/03 12:47:23;;;;;;;5.38;1.00;;;14.10;99.90;;;;;;5067583;28;20396;-52
2023/01/03 12:50:13;;;;;;;4.88;0.70;;;14.10;99.90;;;;;;5069489;28;20871;-52
2023/01/03 12:52:41;;;;;;;7.13;1.02;;;13.90;99.90;;;;;;5073087;28;20375;-53
2023/01/03 12:55:31;;;;;;;5.38;1.00;;;13.90;99.90;;;;;;5071587;28;20403;-53
2023/01/03 12:58:07;;;;;;;4.63;0.88;;;14.00;99.90;;;;;;5072466;28;20384;-56
2023/01/03 13:00:56;;;;;;;5.47;0.70;;;14.10;99.90;;;;;;5072609;28;20415;-55
2023/01/03 13:03:37;;;;;;;5.70;0.90;;;14.10;99.90;;;;;;5072546;28;20403;-53
2023/01/03 13:06:20;;;;;;;7.60;0.90;;;14.20;99.90;;;;;;5072139;28;20407;-55
2023/01/03 13:09:06;;;;;;;4.40;0.60;;;14.30;99.90;;;;;;5073015;28;20404;-56
2023/01/03 13:11:52;;;;;;;4.40;0.70;;;14.30;99.90;;;;;;5072872;28;20383;-53
2023/01/03 13:14:23;;;;;;;4.82;0.80;;;14.10;99.90;;;;;;5049990;28;21054;-52
2023/01/03 13:16:55;;;;;;;6.20;0.90;;;13.60;99.90;;;;;;5069013;28;20768;-52
2023/01/03 13:19:20;;;;;;;5.28;0.90;;;13.50;99.90;;;;;;5071953;28;20849;-51
2023/01/03 13:21:52;;;;;;;4.50;0.80;;;13.40;99.90;;;;;;5066179;28;20386;-51
2023/01/03 13:24:41;;;;;;;6.40;1.00;;;13.40;99.90;;;;;;5051675;28;20402;-52
2023/01/03 13:27:24;;;;;;;5.53;0.98;;;13.20;99.90;;;;;;5051461;28;20468;-52
2023/01/03 13:29:57;;;;;;;5.93;0.90;;;13.00;99.90;;;;;;5072821;28;20942;-53
2023/01/03 13:32:22;;;;;;;8.20;0.90;;;12.80;99.90;;;;;;5071116;28;20398;-52
2023/01/03 13:34:57;;;;;;;8.57;1.10;;;12.70;99.90;;;;;;5081238;28;20414;-52
2023/01/03 13:37:44;;;;;;;6.53;0.80;;;12.30;99.90;;;;;;5086109;28;20394;-52
2023/01/03 13:40:12;;;;;;;4.72;0.75;;;12.50;99.90;;;;;;5059138;28;20943;-53
2023/01/03 13:42:38;;;;;;;6.03;1.10;;;12.40;99.90;;;;;;5084359;28;20453;-54
2023/01/03 13:45:22;;;;;;;4.95;0.98;;;12.30;99.90;;;;;;5082509;28;20410;-53
2023/01/03 13:47:51;;;;;;;4.75;0.75;;;12.20;99.90;;;;;;5076916;28;20384;-53
2023/01/03 13:50:22;;;;;;;8.97;1.70;;;12.10;99.90;;;;;;5086090;28;20408;-53
2023/01/03 13:53:00;;;;;;;11.60;2.72;;;12.00;99.90;;;;;;5071387;28;20387;-53
2023/01/03 13:55:47;;;;;;;6.78;1.30;;;12.00;99.90;;;;;;5070508;28;20956;-53
2023/01/03 13:58:39;;;;;;;5.50;1.30;;;12.10;99.90;;;;;;5066203;28;20528;-54
2023/01/03 14:01:21;;;;;;;9.10;1.50;;;12.10;99.90;;;;;;5050861;28;20386;-53
2023/01/03 14:04:07;;;;;;;8.10;1.90;;;12.00;99.90;;;;;;5050759;28;20412;-53
2023/01/03 14:07:10;;;;;;;6.03;1.67;;;11.90;99.90;;;;;;5050330;28;20801;-53
2023/01/03 14:10:15;;;;;;;6.70;1.40;;;11.90;99.90;;;;;;5051629;28;20409;-53
2023/01/03 14:12:57;;;;;;;5.50;1.30;;;11.90;99.90;;;;;;5051709;28;20378;-54
2023/01/03 14:15:24;;;;;;;5.07;1.35;;;11.90;99.90;;;;;;5070530;28;20384;-53
2023/01/03 14:17:54;;;;;;;6.70;1.30;;;11.90;99.90;;;;;;5071353;28;20544;-54
2023/01/03 14:20:31;;;;;;;6.90;1.50;;;11.90;99.90;;;;;;5052634;28;20380;-53
2023/01/03 14:23:01;;;;;;;6.67;1.60;;;12.10;99.90;;;;;;5070645;28;20422;-57